sensor_id;sensor_type;location;lat;lon;timestamp;P1;durP1;ratioP1;P2;durP2;ratioP2
52072;SDS011;38074;51.232;6.826;2023-10-31T00:00:31;0.53;;;0.20;;
52072;SDS011;38074;51.232;6.826;2023-10-31T00:07:46;0.47;;;0.23;;
52072;SDS011;38074;51.232;6.826;2023-10-31T00:15:02;1.23;;;0.20;;
52072;SDS011;38074;51.232;6.826;2023-10-31T00:22:17;0.57;;;0.20;;
52072;SDS011;38074;51.232;6.826;2023-10-31T00:29:33;0.53;;;0.20;;
52072;SDS011;38074;51.232;6.826;2023-10-31T00:36:49;0.10;;;0.10;;
52072;SDS011;38074;51.232;6.826;2023-10-31T00:44:05;0.30;;;0.10;;
52072;SDS011;38074;51.232;6.826;2023-10-31T00:51:20;1.48;;;0.20;;
52072;SDS011;38074;51.232;6.826;2023-10-31T00:58:36;0.60;;;0.20;;
52072;SDS011;38074;51.232;6.826;2023-10-31T01:05:52;0.37;;;0.20;;
52072;SDS011;38074;51.232;6.826;2023-10-31T01:13:07;0.50;;;0.30;;
52072;SDS011;38074;51.232;6.826;2023-10-31T01:20:23;2.00;;;0.23;;
52072;SDS011;38074;51.232;6.826;2023-10-31T01:27:38;0.20;;;0.10;;
52072;SDS011;38074;51.232;6.826;2023-10-31T01:34:54;0.20;;;0.10;;
52072;SDS011;38074;51.232;6.826;2023-10-31T01:42:09;0.10;;;0.10;;
52072;SDS011;38074;51.232;6.826;2023-10-31T01:49:25;0.10;;;0.10;;
52072;SDS011;38074;51.232;6.826;2023-10-31T01:56:40;0.30;;;0.10;;
52072;SDS011;38074;51.232;6.826;2023-10-31T02:03:57;2.83;;;0.53;;
52072;SDS011;38074;51.232;6.826;2023-10-31T02:11:13;1.27;;;0.20;;
52072;SDS011;38074;51.232;6.826;2023-10-31T02:18:29;2.43;;;0.63;;
52072;SDS011;38074;51.232;6.826;2023-10-31T02:25:44;0.20;;;0.10;;
52072;SDS011;38074;51.232;6.826;2023-10-31T02:33:02;2.43;;;0.20;;
52072;SDS011;38074;51.232;6.826;2023-10-31T02:40:18;1.63;;;0.20;;
52072;SDS011;38074;51.232;6.826;2023-10-31T02:47:34;1.08;;;0.20;;
52072;SDS011;38074;51.232;6.826;2023-10-31T02:54:50;0.40;;;0.13;;
52072;SDS011;38074;51.232;6.826;2023-10-31T03:02:05;1.10;;;0.27;;
52072;SDS011;38074;51.232;6.826;2023-10-31T03:09:21;0.80;;;0.20;;
52072;SDS011;38074;51.232;6.826;2023-10-31T03:16:36;0.97;;;0.20;;
52072;SDS011;38074;51.232;6.826;2023-10-31T03:23:52;0.60;;;0.20;;
52072;SDS011;38074;51.232;6.826;2023-10-31T03:31:08;1.00;;;0.20;;
52072;SDS011;38074;51.232;6.826;2023-10-31T03:38:24;0.20;;;0.10;;
52072;SDS011;38074;51.232;6.826;2023-10-31T03:45:40;1.07;;;0.37;;
52072;SDS011;38074;51.232;6.826;2023-10-31T03:52:55;0.50;;;0.20;;
52072;SDS011;38074;51.232;6.826;2023-10-31T04:00:11;0.77;;;0.20;;
52072;SDS011;38074;51.232;6.826;2023-10-31T04:07:27;1.35;;;0.40;;
52072;SDS011;38074;51.232;6.826;2023-10-31T04:14:43;0.77;;;0.30;;
52072;SDS011;38074;51.232;6.826;2023-10-31T04:21:58;1.07;;;0.30;;
52072;SDS011;38074;51.232;6.826;2023-10-31T04:29:13;1.83;;;0.30;;
52072;SDS011;38074;51.232;6.826;2023-10-31T04:36:29;2.97;;;0.30;;
52072;SDS011;38074;51.232;6.826;2023-10-31T04:43:45;1.58;;;0.40;;
52072;SDS011;38074;51.232;6.826;2023-10-31T04:51:01;1.85;;;0.20;;
52072;SDS011;38074;51.232;6.826;2023-10-31T04:58:16;1.08;;;0.20;;
52072;SDS011;38074;51.232;6.826;2023-10-31T05:05:32;1.13;;;0.30;;
52072;SDS011;38074;51.232;6.826;2023-10-31T05:12:47;1.57;;;0.40;;
52072;SDS011;38074;51.232;6.826;2023-10-31T05:20:03;0.40;;;0.22;;
52072;SDS011;38074;51.232;6.826;2023-10-31T05:27:19;0.38;;;0.10;;
52072;SDS011;38074;51.232;6.826;2023-10-31T05:34:34;0.57;;;0.10;;
52072;SDS011;38074;51.232;6.826;2023-10-31T05:41:50;1.47;;;0.10;;
52072;SDS011;38074;51.232;6.826;2023-10-31T05:49:08;1.90;;;0.33;;
52072;SDS011;38074;51.232;6.826;2023-10-31T05:56:25;0.82;;;0.20;;
52072;SDS011;38074;51.232;6.826;2023-10-31T06:03:41;0.87;;;0.30;;
52072;SDS011;38074;51.232;6.826;2023-10-31T06:10:59;0.85;;;0.20;;
52072;SDS011;38074;51.232;6.826;2023-10-31T06:18:15;0.87;;;0.47;;
52072;SDS011;38074;51.232;6.826;2023-10-31T06:25:30;1.50;;;0.30;;
52072;SDS011;38074;51.232;6.826;2023-10-31T06:32:46;2.42;;;0.60;;
52072;SDS011;38074;51.232;6.826;2023-10-31T06:40:02;2.40;;;0.60;;
52072;SDS011;38074;51.232;6.826;2023-10-31T06:47:18;6.05;;;1.40;;
52072;SDS011;38074;51.232;6.826;2023-10-31T06:54:33;4.10;;;0.90;;
52072;SDS011;38074;51.232;6.826;2023-10-31T07:01:50;2.85;;;1.00;;
52072;SDS011;38074;51.232;6.826;2023-10-31T07:09:05;2.60;;;1.00;;
52072;SDS011;38074;51.232;6.826;2023-10-31T07:16:21;1.83;;;0.95;;
52072;SDS011;38074;51.232;6.826;2023-10-31T07:23:36;6.10;;;3.03;;
52072;SDS011;38074;51.232;6.826;2023-10-31T07:30:52;3.60;;;2.03;;
52072;SDS011;38074;51.232;6.826;2023-10-31T07:38:08;3.30;;;1.40;;
52072;SDS011;38074;51.232;6.826;2023-10-31T07:45:23;1.50;;;0.80;;
52072;SDS011;38074;51.232;6.826;2023-10-31T07:52:39;1.47;;;0.53;;
52072;SDS011;38074;51.232;6.826;2023-10-31T07:59:54;1.73;;;0.50;;
52072;SDS011;38074;51.232;6.826;2023-10-31T08:07:10;2.08;;;0.70;;
52072;SDS011;38074;51.232;6.826;2023-10-31T08:14:26;2.23;;;0.50;;
52072;SDS011;38074;51.232;6.826;2023-10-31T08:21:41;1.17;;;0.50;;
52072;SDS011;38074;51.232;6.826;2023-10-31T08:28:57;2.53;;;0.30;;
52072;SDS011;38074;51.232;6.826;2023-10-31T08:36:13;4.55;;;0.80;;
52072;SDS011;38074;51.232;6.826;2023-10-31T08:43:28;4.43;;;0.70;;
52072;SDS011;38074;51.232;6.826;2023-10-31T08:50:44;3.83;;;0.80;;
52072;SDS011;38074;51.232;6.826;2023-10-31T08:57:59;5.50;;;0.70;;
52072;SDS011;38074;51.232;6.826;2023-10-31T09:05:15;4.03;;;0.73;;
52072;SDS011;38074;51.232;6.826;2023-10-31T09:12:30;3.97;;;0.80;;
52072;SDS011;38074;51.232;6.826;2023-10-31T09:19:46;3.22;;;0.52;;
52072;SDS011;38074;51.232;6.826;2023-10-31T09:27:02;2.97;;;0.57;;
52072;SDS011;38074;51.232;6.826;2023-10-31T09:34:18;3.80;;;0.70;;
52072;SDS011;38074;51.232;6.826;2023-10-31T09:41:33;2.20;;;0.67;;
52072;SDS011;38074;51.232;6.826;2023-10-31T09:48:49;3.37;;;0.43;;
52072;SDS011;38074;51.232;6.826;2023-10-31T09:56:06;2.77;;;0.37;;
52072;SDS011;38074;51.232;6.826;2023-10-31T10:03:22;1.48;;;0.40;;
52072;SDS011;38074;51.232;6.826;2023-10-31T10:10:38;0.93;;;0.40;;
52072;SDS011;38074;51.232;6.826;2023-10-31T10:17:53;0.67;;;0.33;;
52072;SDS011;38074;51.232;6.826;2023-10-31T10:25:13;1.45;;;0.40;;
52072;SDS011;38074;51.232;6.826;2023-10-31T10:32:36;1.73;;;0.40;;
52072;SDS011;38074;51.232;6.826;2023-10-31T10:39:51;3.70;;;0.40;;
52072;SDS011;38074;51.232;6.826;2023-10-31T10:47:12;2.00;;;0.30;;
52072;SDS011;38074;51.232;6.826;2023-10-31T11:01:56;3.57;;;0.57;;
52072;SDS011;38074;51.232;6.826;2023-10-31T11:09:15;3.40;;;0.40;;
52072;SDS011;38074;51.232;6.826;2023-10-31T11:24:14;0.70;;;0.20;;
52072;SDS011;38074;51.232;6.826;2023-10-31T11:31:30;6.00;;;0.50;;
52072;SDS011;38074;51.232;6.826;2023-10-31T11:46:03;3.90;;;0.30;;
52072;SDS011;38074;51.232;6.826;2023-10-31T11:53:18;2.33;;;0.37;;
52072;SDS011;38074;51.232;6.826;2023-10-31T12:00:37;1.90;;;0.70;;
52072;SDS011;38074;51.232;6.826;2023-10-31T12:07:52;1.13;;;0.47;;
52072;SDS011;38074;51.232;6.826;2023-10-31T12:15:09;1.40;;;0.40;;
52072;SDS011;38074;51.232;6.826;2023-10-31T12:22:25;2.38;;;0.40;;
52072;SDS011;38074;51.232;6.826;2023-10-31T12:29:40;2.17;;;0.40;;
52072;SDS011;38074;51.232;6.826;2023-10-31T12:36:55;3.17;;;0.63;;
52072;SDS011;38074;51.232;6.826;2023-10-31T12:44:15;1.65;;;0.20;;
52072;SDS011;38074;51.232;6.826;2023-10-31T12:51:37;0.73;;;0.40;;
52072;SDS011;38074;51.232;6.826;2023-10-31T12:58:57;1.00;;;0.30;;
52072;SDS011;38074;51.232;6.826;2023-10-31T13:06:16;1.42;;;0.30;;
52072;SDS011;38074;51.232;6.826;2023-10-31T13:13:32;1.63;;;0.40;;
52072;SDS011;38074;51.232;6.826;2023-10-31T13:20:48;1.87;;;0.30;;
52072;SDS011;38074;51.232;6.826;2023-10-31T13:28:03;1.33;;;0.30;;
52072;SDS011;38074;51.232;6.826;2023-10-31T13:35:22;2.05;;;0.50;;
52072;SDS011;38074;51.232;6.826;2023-10-31T13:42:38;0.57;;;0.22;;
52072;SDS011;38074;51.232;6.826;2023-10-31T13:49:55;3.60;;;0.40;;
52072;SDS011;38074;51.232;6.826;2023-10-31T13:57:10;2.35;;;0.30;;
52072;SDS011;38074;51.232;6.826;2023-10-31T14:04:26;1.73;;;0.30;;
52072;SDS011;38074;51.232;6.826;2023-10-31T14:11:43;3.88;;;0.70;;
52072;SDS011;38074;51.232;6.826;2023-10-31T14:18:59;3.60;;;0.50;;
52072;SDS011;38074;51.232;6.826;2023-10-31T14:33:32;3.33;;;0.40;;
52072;SDS011;38074;51.232;6.826;2023-10-31T14:40:47;1.57;;;0.50;;
52072;SDS011;38074;51.232;6.826;2023-10-31T14:48:03;2.07;;;0.50;;
52072;SDS011;38074;51.232;6.826;2023-10-31T14:55:19;2.72;;;0.60;;
52072;SDS011;38074;51.232;6.826;2023-10-31T15:02:34;4.97;;;1.20;;
52072;SDS011;38074;51.232;6.826;2023-10-31T15:09:50;5.60;;;0.90;;
52072;SDS011;38074;51.232;6.826;2023-10-31T15:17:05;4.00;;;0.80;;
52072;SDS011;38074;51.232;6.826;2023-10-31T15:24:21;3.30;;;0.73;;
52072;SDS011;38074;51.232;6.826;2023-10-31T15:31:42;3.43;;;0.67;;
52072;SDS011;38074;51.232;6.826;2023-10-31T15:38:58;3.83;;;0.73;;
52072;SDS011;38074;51.232;6.826;2023-10-31T15:46:14;7.33;;;0.70;;
52072;SDS011;38074;51.232;6.826;2023-10-31T15:53:29;3.80;;;0.80;;
52072;SDS011;38074;51.232;6.826;2023-10-31T16:00:46;3.43;;;0.90;;
52072;SDS011;38074;51.232;6.826;2023-10-31T16:08:02;8.20;;;1.00;;
52072;SDS011;38074;51.232;6.826;2023-10-31T16:15:18;4.78;;;0.90;;
52072;SDS011;38074;51.232;6.826;2023-10-31T16:22:33;5.43;;;0.60;;
52072;SDS011;38074;51.232;6.826;2023-10-31T16:29:49;3.40;;;0.70;;
52072;SDS011;38074;51.232;6.826;2023-10-31T16:37:05;3.83;;;0.80;;
52072;SDS011;38074;51.232;6.826;2023-10-31T16:44:20;4.17;;;0.60;;
52072;SDS011;38074;51.232;6.826;2023-10-31T16:51:39;2.08;;;0.52;;
52072;SDS011;38074;51.232;6.826;2023-10-31T16:58:56;4.00;;;0.88;;
52072;SDS011;38074;51.232;6.826;2023-10-31T17:06:12;3.33;;;0.63;;
52072;SDS011;38074;51.232;6.826;2023-10-31T17:13:29;1.90;;;0.60;;
52072;SDS011;38074;51.232;6.826;2023-10-31T17:20:48;3.58;;;0.80;;
52072;SDS011;38074;51.232;6.826;2023-10-31T17:35:20;2.65;;;0.85;;
52072;SDS011;38074;51.232;6.826;2023-10-31T17:42:35;2.00;;;0.93;;
52072;SDS011;38074;51.232;6.826;2023-10-31T17:49:53;3.53;;;1.08;;
52072;SDS011;38074;51.232;6.826;2023-10-31T18:04:24;5.43;;;1.30;;
52072;SDS011;38074;51.232;6.826;2023-10-31T18:11:40;4.80;;;1.20;;
52072;SDS011;38074;51.232;6.826;2023-10-31T18:18:57;4.50;;;1.00;;
52072;SDS011;38074;51.232;6.826;2023-10-31T18:26:13;6.10;;;2.00;;
52072;SDS011;38074;51.232;6.826;2023-10-31T18:33:30;3.90;;;0.93;;
52072;SDS011;38074;51.232;6.826;2023-10-31T18:40:49;2.70;;;0.90;;
52072;SDS011;38074;51.232;6.826;2023-10-31T18:48:04;4.82;;;1.65;;
52072;SDS011;38074;51.232;6.826;2023-10-31T18:55:20;4.10;;;1.23;;
52072;SDS011;38074;51.232;6.826;2023-10-31T19:02:44;4.10;;;1.00;;
52072;SDS011;38074;51.232;6.826;2023-10-31T19:10:00;6.97;;;1.52;;
52072;SDS011;38074;51.232;6.826;2023-10-31T19:17:16;9.60;;;1.40;;
52072;SDS011;38074;51.232;6.826;2023-10-31T19:24:31;6.57;;;1.77;;
52072;SDS011;38074;51.232;6.826;2023-10-31T19:31:47;4.57;;;1.27;;
52072;SDS011;38074;51.232;6.826;2023-10-31T19:39:09;8.82;;;1.08;;
52072;SDS011;38074;51.232;6.826;2023-10-31T19:46:25;6.78;;;1.88;;
52072;SDS011;38074;51.232;6.826;2023-10-31T19:53:41;6.50;;;1.48;;
52072;SDS011;38074;51.232;6.826;2023-10-31T20:00:57;3.75;;;1.30;;
52072;SDS011;38074;51.232;6.826;2023-10-31T20:08:13;4.53;;;1.65;;
52072;SDS011;38074;51.232;6.826;2023-10-31T20:15:29;4.70;;;1.40;;
52072;SDS011;38074;51.232;6.826;2023-10-31T20:22:44;5.13;;;1.33;;
52072;SDS011;38074;51.232;6.826;2023-10-31T20:30:00;9.27;;;1.65;;
52072;SDS011;38074;51.232;6.826;2023-10-31T20:45:30;8.05;;;1.73;;
52072;SDS011;38074;51.232;6.826;2023-10-31T20:53:25;6.88;;;1.50;;
52072;SDS011;38074;51.232;6.826;2023-10-31T21:08:57;9.85;;;1.42;;
52072;SDS011;38074;51.232;6.826;2023-10-31T21:16:15;10.95;;;1.77;;
52072;SDS011;38074;51.232;6.826;2023-10-31T21:23:31;13.20;;;1.83;;
52072;SDS011;38074;51.232;6.826;2023-10-31T21:54:38;3.65;;;0.85;;
52072;SDS011;38074;51.232;6.826;2023-10-31T22:10:50;5.22;;;0.75;;
52072;SDS011;38074;51.232;6.826;2023-10-31T22:18:17;3.85;;;0.88;;
52072;SDS011;38074;51.232;6.826;2023-10-31T22:25:40;4.45;;;0.80;;
52072;SDS011;38074;51.232;6.826;2023-10-31T22:33:13;2.47;;;0.77;;
52072;SDS011;38074;51.232;6.826;2023-10-31T22:40:31;2.05;;;0.55;;
52072;SDS011;38074;51.232;6.826;2023-10-31T22:47:58;1.75;;;0.40;;
52072;SDS011;38074;51.232;6.826;2023-10-31T22:55:29;3.05;;;0.47;;
52072;SDS011;38074;51.232;6.826;2023-10-31T23:02:50;2.92;;;0.77;;
52072;SDS011;38074;51.232;6.826;2023-10-31T23:10:06;4.35;;;0.88;;
52072;SDS011;38074;51.232;6.826;2023-10-31T23:17:22;2.20;;;0.57;;
52072;SDS011;38074;51.232;6.826;2023-10-31T23:24:38;2.75;;;0.57;;
52072;SDS011;38074;51.232;6.826;2023-10-31T23:31:55;0.87;;;0.40;;
52072;SDS011;38074;51.232;6.826;2023-10-31T23:39:10;1.10;;;0.47;;
52072;SDS011;38074;51.232;6.826;2023-10-31T23:46:26;2.00;;;0.60;;
52072;SDS011;38074;51.232;6.826;2023-10-31T23:53:42;1.60;;;0.50;;
